Time;durP1;ratioP1;P1;durP2;ratioP2;P2;SDS_P1;SDS_P2;PMS_P1;PMS_P2;Temp;Humidity;BMP_temperature;BMP_pressure;BME280_temperature;BME280_humidity;BME280_pressure;Samples;Min_cycle;Max_cycle;Signal;HPM_P1;HPM_P2
2022/02/09 00:01:56;;;;;;;5.20;3.20;;;8.60;99.90;;;;;;5033273;28;20233;-59
2022/02/09 00:04:29;;;;;;;5.50;3.13;;;8.50;99.90;;;;;;5033214;28;20240;-57
2022/02/09 00:07:05;;;;;;;4.20;3.23;;;8.50;99.90;;;;;;5033161;28;20204;-60
2022/02/09 00:09:31;;;;;;;4.70;3.27;;;8.50;99.90;;;;;;5033420;28;20308;-59
2022/02/09 00:12:06;;;;;;;4.20;3.23;;;8.50;99.90;;;;;;5032889;28;20622;-59
2022/02/09 00:14:42;;;;;;;4.97;3.13;;;8.60;99.90;;;;;;5032559;28;20250;-58
2022/02/09 00:20:11;;;;;;;5.37;3.30;;;8.50;99.90;;;;;;5030329;28;20211;-60
2022/02/09 00:22:50;;;;;;;4.70;3.67;;;8.60;99.90;;;;;;5032745;28;20236;-57
2022/02/09 00:25:38;;;;;;;6.53;3.80;;;8.50;99.90;;;;;;5032902;28;20208;-59
2022/02/09 00:28:30;;;;;;;5.60;3.73;;;8.50;99.90;;;;;;5032558;28;20298;-59
2022/02/09 00:31:29;;;;;;;5.73;3.90;;;8.50;99.90;;;;;;5032742;28;20346;-57
2022/02/09 00:34:19;;;;;;;3.67;2.93;;;8.50;99.90;;;;;;5032617;28;20227;-58
2022/02/09 00:37:14;;;;;;;5.87;3.40;;;8.50;99.90;;;;;;5032524;28;20282;-58
2022/02/09 00:40:02;;;;;;;6.67;3.57;;;8.50;99.90;;;;;;5032189;28;21008;-58
2022/02/09 00:42:58;;;;;;;3.87;3.23;;;8.50;99.90;;;;;;5032331;28;20228;-58
2022/02/09 00:59:33;;;;;;;5.33;3.37;;;8.50;99.90;;;;;;5032085;28;20276;-59
2022/02/09 01:38:06;;;;;;;2.60;1.97;;;8.50;99.90;;;;;;5031158;28;20357;-56
2022/02/09 01:41:33;;;;;;;2.63;1.83;;;8.40;99.90;;;;;;5031554;28;20235;-59
2022/02/09 01:44:27;;;;;;;2.63;1.70;;;8.50;99.90;;;;;;5030991;28;20578;-59
2022/02/09 01:55:27;;;;;;;2.10;1.63;;;8.30;99.90;;;;;;5005790;28;20208;-60
2022/02/09 01:57:54;;;;;;;2.03;1.77;;;8.30;99.90;;;;;;5031121;28;20215;-59
2022/02/09 02:00:21;;;;;;;2.07;1.77;;;8.20;99.90;;;;;;5031349;28;20238;-59
2022/02/09 02:02:47;;;;;;;1.97;1.57;;;8.20;99.90;;;;;;5030628;28;20233;-59
2022/02/09 02:05:15;;;;;;;2.93;1.40;;;8.20;99.90;;;;;;5031351;28;20371;-58
2022/02/09 02:07:49;;;;;;;2.33;1.57;;;8.20;99.90;;;;;;5031316;28;20212;-59
2022/02/09 02:10:20;;;;;;;2.77;1.70;;;8.10;99.90;;;;;;5031168;28;20211;-59
2022/02/09 02:12:52;;;;;;;3.87;1.50;;;8.10;99.90;;;;;;5031393;28;20234;-58
2022/02/09 02:15:46;;;;;;;2.30;1.90;;;8.00;99.90;;;;;;5031101;28;20203;-59
2022/02/09 02:18:13;;;;;;;3.33;1.93;;;8.10;99.90;;;;;;5031569;28;20192;-57
2022/02/09 02:20:50;;;;;;;3.10;2.20;;;8.00;99.90;;;;;;5031301;28;20218;-59
2022/02/09 02:23:34;;;;;;;2.90;2.60;;;8.00;99.90;;;;;;5031214;28;20231;-59
2022/02/09 02:26:13;;;;;;;4.50;3.13;;;8.00;99.90;;;;;;5031337;28;20209;-59
2022/02/09 02:28:54;;;;;;;4.97;3.67;;;8.10;99.90;;;;;;5031441;28;20247;-59
2022/02/09 02:31:57;;;;;;;5.40;3.83;;;8.10;99.90;;;;;;5031142;28;20227;-59
2022/02/09 02:37:35;;;;;;;7.03;5.30;;;8.20;99.90;;;;;;5000055;28;20212;-59
2022/02/09 02:43:33;;;;;;;8.10;5.60;;;8.20;99.90;;;;;;5034374;28;20244;-59
2022/02/09 02:46:20;;;;;;;8.00;6.07;;;8.30;99.90;;;;;;5034310;28;20222;-59
2022/02/09 02:57:20;;;;;;;8.17;6.13;;;8.20;99.90;;;;;;5034157;28;20257;-58
2022/02/09 03:11:02;;;;;;;10.80;5.73;;;8.30;99.90;;;;;;5034607;28;20240;-58
2022/02/09 03:13:34;;;;;;;8.97;5.70;;;8.20;99.90;;;;;;5034104;28;20742;-58
2022/02/09 03:16:04;;;;;;;9.37;5.97;;;8.20;99.90;;;;;;5034339;28;20193;-59
2022/02/09 03:18:59;;;;;;;8.50;5.70;;;8.20;99.90;;;;;;5034184;28;20212;-58
2022/02/09 03:21:39;;;;;;;7.53;5.37;;;8.20;99.90;;;;;;5034264;28;20698;-59
2022/02/09 03:24:11;;;;;;;5.63;4.67;;;8.30;99.90;;;;;;5033891;28;20306;-58
2022/02/09 03:43:30;;;;;;;6.10;4.77;;;8.40;99.90;;;;;;5033718;28;20226;-59
2022/02/09 03:46:27;;;;;;;8.07;4.93;;;8.30;99.90;;;;;;5033431;28;20204;-58
2022/02/09 03:49:08;;;;;;;6.73;5.30;;;8.40;99.90;;;;;;5032563;28;20560;-58
2022/02/09 03:51:59;;;;;;;5.77;4.80;;;8.30;99.90;;;;;;5033786;28;20207;-59
2022/02/09 03:54:34;;;;;;;6.80;5.00;;;8.40;99.90;;;;;;5033324;28;20211;-59
2022/02/09 03:57:03;;;;;;;7.23;5.07;;;8.40;99.90;;;;;;5033301;28;21045;-59
2022/02/09 03:59:32;;;;;;;6.17;4.83;;;8.40;99.90;;;;;;5033014;28;20244;-59
2022/02/09 04:02:02;;;;;;;8.30;5.43;;;8.40;99.90;;;;;;5033198;28;20213;-58
2022/02/09 04:04:30;;;;;;;6.97;5.10;;;8.40;99.90;;;;;;5033349;28;20229;-58
2022/02/09 04:06:56;;;;;;;7.17;5.50;;;8.40;99.90;;;;;;5033014;28;20213;-54
2022/02/09 04:09:27;;;;;;;8.53;5.77;;;8.40;99.90;;;;;;5033262;28;20208;-54
2022/02/09 04:12:01;;;;;;;8.00;5.70;;;8.40;99.90;;;;;;5032829;28;20536;-56
2022/02/09 04:14:36;;;;;;;8.77;6.27;;;8.40;99.90;;;;;;5033278;28;20215;-56
2022/02/09 04:17:17;;;;;;;8.40;6.00;;;8.40;99.90;;;;;;5032803;28;20217;-58
2022/02/09 04:20:03;;;;;;;8.00;6.00;;;8.40;99.90;;;;;;5032854;28;20701;-58
2022/02/09 04:23:12;;;;;;;7.60;5.57;;;8.40;99.90;;;;;;5032459;28;20223;-58
2022/02/09 04:36:51;;;;;;;8.10;6.23;;;8.20;99.90;;;;;;5032270;28;20319;-58
2022/02/09 04:39:25;;;;;;;8.67;5.87;;;8.20;99.90;;;;;;5032416;28;20201;-56
2022/02/09 04:47:30;;;;;;;8.60;5.90;;;8.10;99.90;;;;;;5018765;28;20203;-56
2022/02/09 04:50:13;;;;;;;9.23;7.13;;;8.10;99.90;;;;;;5032294;28;20216;-56
2022/02/09 04:58:12;;;;;;;10.87;6.70;;;8.10;99.90;;;;;;5031955;28;20207;-58
2022/02/09 05:00:47;;;;;;;10.80;6.73;;;8.10;99.90;;;;;;5032090;28;20226;-57
2022/02/09 05:28:04;;;;;;;8.33;5.50;;;7.90;99.90;;;;;;5031536;28;20203;-56
2022/02/09 05:30:32;;;;;;;8.73;5.57;;;7.90;99.90;;;;;;5031423;28;20225;-55
2022/02/09 05:32:59;;;;;;;6.63;4.57;;;7.90;99.90;;;;;;5031571;28;20227;-57
2022/02/09 05:35:26;;;;;;;6.67;4.53;;;7.90;99.90;;;;;;5031198;28;20215;-57
2022/02/09 05:37:56;;;;;;;5.70;4.40;;;8.00;99.90;;;;;;5031606;28;20209;-58
2022/02/09 05:40:23;;;;;;;7.57;4.77;;;8.00;99.90;;;;;;5031426;28;20209;-56
2022/02/09 05:42:50;;;;;;;5.63;4.07;;;8.00;99.90;;;;;;5031451;28;20300;-58
2022/02/09 05:45:18;;;;;;;5.30;4.23;;;8.00;99.90;;;;;;5031264;28;20306;-58
2022/02/09 05:50:33;;;;;;;6.77;4.43;;;8.00;99.90;;;;;;5030545;28;20214;-62
2022/02/09 05:53:10;;;;;;;6.47;4.73;;;8.00;99.90;;;;;;5031016;28;20254;-59
2022/02/09 05:55:49;;;;;;;8.90;5.37;;;8.00;99.90;;;;;;5031366;28;20199;-56
2022/02/09 05:58:44;;;;;;;4.97;3.33;;;8.00;99.90;;;;;;5031055;28;20215;-55
2022/02/09 06:01:11;;;;;;;9.70;4.73;;;8.00;99.90;;;;;;5031470;28;20207;-54
2022/02/09 06:03:37;;;;;;;7.50;4.80;;;8.10;99.90;;;;;;5030554;28;20670;-57
2022/02/09 06:06:04;;;;;;;6.60;4.90;;;8.10;99.90;;;;;;5030855;28;20231;-53
2022/02/09 06:08:32;;;;;;;5.73;4.53;;;8.10;99.90;;;;;;5030911;28;20266;-58
2022/02/09 06:11:12;;;;;;;8.33;4.43;;;8.10;99.90;;;;;;5031908;28;20669;-57
2022/02/09 06:13:51;;;;;;;7.40;4.43;;;8.10;99.90;;;;;;5034709;28;20222;-58
2022/02/09 06:21:46;;;;;;;5.07;3.70;;;8.10;99.90;;;;;;5035038;28;20202;-56
2022/02/09 06:24:14;;;;;;;6.20;3.50;;;8.10;99.90;;;;;;5034461;28;20278;-58
2022/02/09 06:26:41;;;;;;;5.90;3.70;;;8.10;99.90;;;;;;5034789;28;20205;-56
2022/02/09 06:29:09;;;;;;;5.30;3.60;;;8.10;99.90;;;;;;5034522;28;20211;-63
2022/02/09 06:31:37;;;;;;;5.63;3.70;;;8.00;99.90;;;;;;5034932;28;20235;-64
2022/02/09 06:34:04;;;;;;;6.53;3.53;;;8.10;99.90;;;;;;5034617;28;20226;-66
2022/02/09 06:36:35;;;;;;;4.60;3.63;;;8.10;99.90;;;;;;5034889;28;20207;-65
2022/02/09 06:39:05;;;;;;;6.03;4.03;;;8.10;99.90;;;;;;5034786;28;20303;-65
2022/02/09 06:41:33;;;;;;;4.93;3.80;;;8.10;99.90;;;;;;5034484;28;20576;-65
2022/02/09 06:44:00;;;;;;;6.10;4.30;;;8.10;99.90;;;;;;5034349;28;20232;-66
2022/02/09 06:46:32;;;;;;;7.73;4.57;;;8.10;99.90;;;;;;5034203;28;20298;-63
2022/02/09 06:49:03;;;;;;;6.20;4.20;;;8.20;99.90;;;;;;5034600;28;20291;-61
2022/02/09 06:51:33;;;;;;;7.63;5.27;;;8.20;99.90;;;;;;5034164;28;20580;-63
2022/02/09 06:54:03;;;;;;;8.63;5.13;;;8.20;99.90;;;;;;5034683;28;20372;-63
2022/02/09 06:56:43;;;;;;;8.13;5.20;;;8.30;99.90;;;;;;5034084;28;20200;-62
2022/02/09 06:59:14;;;;;;;10.83;6.30;;;8.20;99.90;;;;;;5034275;28;20674;-63
2022/02/09 07:01:41;;;;;;;9.77;6.63;;;8.20;99.90;;;;;;5034065;28;20219;-63
2022/02/09 07:04:08;;;;;;;9.73;6.53;;;8.10;99.90;;;;;;5034101;28;20289;-63
2022/02/09 07:06:34;;;;;;;10.63;6.67;;;8.10;99.90;;;;;;5033726;28;20232;-63
2022/02/09 07:09:01;;;;;;;10.80;7.57;;;8.00;99.90;;;;;;5034051;28;20253;-62
2022/02/09 07:11:28;;;;;;;11.47;7.30;;;8.00;99.90;;;;;;5033715;28;20568;-63
2022/02/09 07:13:54;;;;;;;11.77;6.83;;;7.90;99.90;;;;;;5033508;28;20726;-61
2022/02/09 07:16:23;;;;;;;11.17;8.07;;;7.80;99.90;;;;;;5033529;28;20771;-62
2022/02/09 07:18:51;;;;;;;12.37;8.00;;;7.70;99.90;;;;;;5033694;28;20588;-62
2022/02/09 07:21:22;;;;;;;10.77;7.50;;;7.80;99.90;;;;;;5033757;28;20222;-61
2022/02/09 07:23:50;;;;;;;10.93;7.57;;;7.80;99.90;;;;;;5032061;28;20321;-63
2022/02/09 07:26:20;;;;;;;12.50;8.23;;;7.80;99.90;;;;;;5033954;28;20227;-64
2022/02/09 07:28:47;;;;;;;12.13;7.70;;;7.80;99.90;;;;;;5034728;28;20320;-64
2022/02/09 07:31:15;;;;;;;11.30;7.40;;;7.90;99.90;;;;;;5033648;28;20210;-64
2022/02/09 07:33:44;;;;;;;11.97;7.67;;;7.90;99.90;;;;;;5033209;28;20596;-64
2022/02/09 07:36:13;;;;;;;9.73;6.97;;;7.90;99.90;;;;;;5033232;28;20262;-64
2022/02/09 07:38:41;;;;;;;9.23;6.93;;;8.00;99.90;;;;;;5033430;28;20261;-64
2022/02/09 07:41:08;;;;;;;11.07;7.13;;;8.00;99.90;;;;;;5033706;28;20222;-64
2022/02/09 07:43:50;;;;;;;10.07;6.67;;;8.10;99.90;;;;;;5033891;28;20232;-64
2022/02/09 07:46:30;;;;;;;9.90;7.00;;;8.20;99.90;;;;;;5033575;28;20223;-62
2022/02/09 07:49:04;;;;;;;12.27;7.37;;;8.20;99.90;;;;;;5033494;28;20584;-63
2022/02/09 07:51:41;;;;;;;11.20;6.80;;;8.30;99.90;;;;;;5033789;28;20297;-63
2022/02/09 07:54:08;;;;;;;9.37;6.13;;;8.30;99.90;;;;;;5033812;28;20224;-61
2022/02/09 07:56:37;;;;;;;10.33;7.67;;;8.30;99.90;;;;;;5033269;28;20199;-62
2022/02/09 07:59:05;;;;;;;8.43;6.43;;;8.30;99.90;;;;;;5033402;28;20207;-63
2022/02/09 08:01:32;;;;;;;9.90;7.00;;;8.30;99.90;;;;;;5033147;28;20631;-61
2022/02/09 08:04:00;;;;;;;8.37;5.73;;;8.40;99.90;;;;;;5033031;28;20235;-62
2022/02/09 08:06:27;;;;;;;11.73;6.77;;;8.40;99.90;;;;;;5032802;28;20234;-60
2022/02/09 08:08:58;;;;;;;11.07;7.57;;;8.40;99.90;;;;;;5032819;28;20216;-63
2022/02/09 08:11:29;;;;;;;12.23;7.03;;;8.40;99.90;;;;;;5032547;28;20215;-63
2022/02/09 08:28:20;;;;;;;10.80;7.83;;;8.40;99.90;;;;;;5012003;28;20243;-66
2022/02/09 08:31:01;;;;;;;12.97;7.83;;;8.50;99.90;;;;;;5012616;28;20212;-65
2022/02/09 08:33:27;;;;;;;12.07;8.17;;;8.40;99.90;;;;;;5011668;28;20236;-58
2022/02/09 08:35:56;;;;;;;12.40;8.27;;;8.40;99.90;;;;;;5012005;28;20227;-60
2022/02/09 08:38:28;;;;;;;9.87;7.07;;;8.40;99.90;;;;;;5011858;28;20726;-62
2022/02/09 08:40:55;;;;;;;13.07;7.17;;;8.40;99.90;;;;;;5023613;28;20212;-62
2022/02/09 08:43:22;;;;;;;9.23;7.30;;;8.40;99.90;;;;;;5031970;28;20231;-61
2022/02/09 08:45:48;;;;;;;10.90;7.27;;;8.40;99.90;;;;;;5031264;28;20248;-64
2022/02/09 08:48:15;;;;;;;11.07;7.67;;;8.40;99.90;;;;;;5026627;28;20204;-64
2022/02/09 08:50:42;;;;;;;12.03;7.00;;;8.40;99.90;;;;;;5031528;28;20236;-65
2022/02/09 08:53:10;;;;;;;11.07;7.10;;;8.50;99.90;;;;;;5031694;28;20232;-66
2022/02/09 08:55:37;;;;;;;10.17;6.87;;;8.50;99.90;;;;;;5031647;28;20212;-65
2022/02/09 08:58:04;;;;;;;10.03;6.57;;;8.60;99.90;;;;;;5031732;28;20217;-65
2022/02/09 09:00:35;;;;;;;8.33;6.23;;;8.60;99.90;;;;;;5031551;28;20226;-59
2022/02/09 09:03:14;;;;;;;8.60;6.30;;;8.60;99.90;;;;;;5031485;28;20270;-64
2022/02/09 09:05:46;;;;;;;10.33;6.77;;;8.60;99.90;;;;;;5031299;28;20328;-65
2022/02/09 09:58:21;;;;;;;5.20;2.73;;;9.60;53.20;;;;;;5030346;28;20293;-64
2022/02/09 10:03:49;;;;;;;7.83;3.47;;;9.80;1.00;;;;;;5030263;28;20651;-62
2022/02/09 10:34:12;;;;;;;3.67;2.07;;;9.70;1.00;;;;;;5030563;28;20225;-63
2022/02/09 10:36:47;;;;;;;4.57;2.10;;;9.70;1.00;;;;;;5031155;28;20206;-63
2022/02/09 10:39:18;;;;;;;3.57;2.50;;;9.70;1.00;;;;;;5031124;28;20210;-64
2022/02/09 10:41:51;;;;;;;3.47;2.37;;;9.70;1.00;;;;;;5031934;28;20265;-62
2022/02/09 10:44:22;;;;;;;4.37;2.60;;;9.70;1.00;;;;;;5032114;28;20288;-62
2022/02/09 10:46:52;;;;;;;3.20;2.40;;;9.80;1.00;;;;;;5031920;28;20662;-65
2022/02/09 10:49:21;;;;;;;3.20;2.13;;;9.90;1.00;;;;;;5050795;28;20202;-63
2022/02/09 10:51:52;;;;;;;3.77;2.60;;;10.00;1.00;;;;;;5050473;28;20243;-62
2022/02/09 10:54:21;;;;;;;3.67;2.60;;;9.90;1.00;;;;;;5050114;28;20325;-61
2022/02/09 10:56:51;;;;;;;2.77;1.97;;;9.90;1.00;;;;;;5050766;28;20204;-59
2022/02/09 10:59:21;;;;;;;3.87;2.83;;;9.90;1.00;;;;;;5054093;28;20209;-63
2022/02/09 11:01:48;;;;;;;3.60;2.70;;;9.80;1.00;;;;;;5054199;28;20213;-64
2022/02/09 11:04:17;;;;;;;5.43;2.97;;;9.70;1.00;;;;;;5053696;28;20249;-59
2022/02/09 11:06:46;;;;;;;4.03;2.70;;;9.80;1.00;;;;;;5053643;28;20248;-63
2022/02/09 11:09:15;;;;;;;6.43;4.03;;;10.00;1.00;;;;;;5053251;28;20201;-62
2022/02/09 11:11:42;;;;;;;6.50;3.57;;;9.90;1.00;;;;;;5053850;28;20640;-63
2022/02/09 11:14:14;;;;;;;4.33;3.40;;;10.00;1.00;;;;;;5053510;28;20271;-59
2022/02/09 11:16:42;;;;;;;6.53;2.90;;;10.00;1.00;;;;;;5053462;28;20209;-57
2022/02/09 11:19:10;;;;;;;5.67;2.30;;;10.00;1.00;;;;;;5053427;28;20359;-59
2022/02/09 11:21:40;;;;;;;5.90;3.23;;;10.10;1.00;;;;;;5053694;28;20228;-61
2022/02/09 11:24:19;;;;;;;4.73;3.40;;;10.10;1.00;;;;;;5053306;28;20229;-66
2022/02/09 11:26:54;;;;;;;6.70;3.63;;;10.10;1.00;;;;;;5052886;28;20221;-66
2022/02/09 11:32:40;;;;;;;6.30;3.77;;;10.20;1.00;;;;;;5049296;28;20198;-61
2022/02/09 11:35:17;;;;;;;5.80;3.80;;;10.20;1.00;;;;;;5053242;28;20296;-60
2022/02/09 11:37:57;;;;;;;4.70;3.90;;;10.10;1.00;;;;;;5052394;28;20287;-62
2022/02/09 11:40:32;;;;;;;6.60;3.87;;;10.20;1.00;;;;;;5053629;28;20209;-62
2022/02/09 11:43:39;;;;;;;9.17;4.40;;;10.10;1.00;;;;;;5052793;28;20248;-65
2022/02/09 11:46:28;;;;;;;6.67;3.80;;;10.20;1.00;;;;;;5052713;28;20614;-67
2022/02/09 11:49:39;;;;;;;5.10;3.53;;;10.10;1.00;;;;;;5052236;28;20304;-67
2022/02/09 12:00:58;;;;;;;5.80;3.83;;;9.60;2.50;;;;;;5052709;28;20230;-69
2022/02/09 12:10:13;;;;;;;4.97;3.20;;;9.50;6.00;;;;;;5051790;28;20207;-65
2022/02/09 12:12:45;;;;;;;8.57;4.10;;;9.30;5.50;;;;;;5052497;28;20228;-64
2022/02/09 12:15:28;;;;;;;5.23;3.40;;;9.40;23.50;;;;;;5052375;28;20584;-65
2022/02/09 12:18:13;;;;;;;5.93;3.83;;;9.40;15.50;;;;;;5052516;28;20249;-65
2022/02/09 12:20:47;;;;;;;7.07;3.93;;;9.40;23.80;;;;;;5052432;28;20206;-64
2022/02/09 12:23:28;;;;;;;5.77;4.47;;;9.40;12.60;;;;;;5052394;28;20287;-63
2022/02/09 12:25:56;;;;;;;8.67;4.13;;;9.40;38.00;;;;;;5052509;28;20227;-64
2022/02/09 12:28:24;;;;;;;6.07;4.00;;;9.40;39.30;;;;;;5051987;28;20275;-64
2022/02/09 12:31:03;;;;;;;5.70;3.90;;;9.40;30.80;;;;;;5052306;28;20309;-66
2022/02/09 12:33:30;;;;;;;6.70;3.63;;;9.40;19.50;;;;;;5051841;28;20255;-64
2022/02/09 12:36:08;;;;;;;6.07;3.67;;;9.50;5.70;;;;;;5034390;28;20202;-65
2022/02/09 12:38:35;;;;;;;5.57;3.40;;;9.50;1.00;;;;;;5031621;28;20233;-65
2022/02/09 12:41:15;;;;;;;5.63;3.60;;;9.50;1.00;;;;;;5032132;28;20581;-62
2022/02/09 12:43:54;;;;;;;4.73;2.97;;;9.40;1.00;;;;;;5031661;28;20230;-66
2022/02/09 12:46:24;;;;;;;5.77;3.63;;;9.40;1.00;;;;;;5031985;28;20303;-61
2022/02/09 12:48:51;;;;;;;4.77;3.13;;;9.40;1.00;;;;;;5031384;28;20633;-61
2022/02/09 12:51:26;;;;;;;5.27;3.37;;;9.40;1.00;;;;;;5032248;28;20567;-61
2022/02/09 12:53:53;;;;;;;4.57;3.10;;;9.40;1.00;;;;;;5031895;28;20230;-62
2022/02/09 12:56:24;;;;;;;6.77;3.20;;;9.50;1.00;;;;;;5031613;28;20677;-61
2022/02/09 12:59:03;;;;;;;5.77;3.10;;;9.60;1.00;;;;;;5031807;28;20209;-62
2022/02/09 13:01:41;;;;;;;5.70;3.60;;;9.60;1.00;;;;;;5031523;28;20571;-64
2022/02/09 13:04:08;;;;;;;5.50;3.53;;;9.60;1.00;;;;;;5031584;28;20237;-63
2022/02/09 13:06:34;;;;;;;6.73;3.97;;;9.60;1.00;;;;;;5031312;28;20276;-65
2022/02/09 13:09:01;;;;;;;6.20;4.10;;;9.60;1.00;;;;;;5031316;28;20202;-65
2022/02/09 13:11:32;;;;;;;5.73;3.50;;;9.60;1.00;;;;;;5031211;28;20641;-64
2022/02/09 13:14:06;;;;;;;5.70;3.70;;;9.60;1.00;;;;;;5031206;28;20766;-62
2022/02/09 13:19:41;;;;;;;6.90;4.10;;;9.70;1.00;;;;;;5030677;28;20211;-62
2022/02/09 13:25:29;;;;;;;6.10;4.07;;;9.70;1.00;;;;;;5031141;28;20205;-62
2022/02/09 13:54:01;;;;;;;8.07;4.40;;;10.00;1.00;;;;;;5031641;28;20217;-67
2022/02/09 14:13:09;;;;;;;4.83;3.60;;;10.10;1.00;;;;;;5088947;28;20226;-62
2022/02/09 14:18:59;;;;;;;4.30;2.83;;;10.10;1.00;;;;;;5018454;28;20209;-66
2022/02/09 14:35:41;;;;;;;6.43;3.17;;;9.90;1.00;;;;;;5068311;28;20220;-59
2022/02/09 14:54:40;;;;;;;4.37;3.10;;;9.90;1.00;;;;;;5042305;28;20497;-59
2022/02/09 14:57:11;;;;;;;5.60;3.20;;;9.80;1.00;;;;;;5067559;28;20212;-61
2022/02/09 15:00:01;;;;;;;5.83;2.60;;;9.80;1.00;;;;;;5068137;28;20550;-60
2022/02/09 15:02:40;;;;;;;5.47;2.90;;;9.90;1.00;;;;;;5067958;28;20229;-61
2022/02/09 15:05:39;;;;;;;4.03;2.53;;;9.90;1.00;;;;;;5068128;28;20209;-60
2022/02/09 15:08:11;;;;;;;6.40;2.87;;;9.90;1.00;;;;;;5067122;28;20228;-60
2022/02/09 15:10:44;;;;;;;3.23;2.70;;;9.90;1.00;;;;;;5068005;28;20216;-59
2022/02/09 15:13:27;;;;;;;6.13;3.00;;;9.90;1.00;;;;;;5067783;28;20224;-57
2022/02/09 15:16:03;;;;;;;4.53;2.90;;;9.80;1.00;;;;;;5067505;28;20205;-58
2022/02/09 15:21:21;;;;;;;5.33;2.53;;;9.90;1.00;;;;;;5059727;28;20212;-59
2022/02/09 15:23:50;;;;;;;6.27;2.87;;;9.90;1.00;;;;;;5073784;28;20349;-61
2022/02/09 15:26:19;;;;;;;6.73;2.27;;;9.80;1.00;;;;;;5074091;28;20213;-62
2022/02/09 15:28:45;;;;;;;5.97;2.63;;;9.90;1.00;;;;;;5073718;28;20311;-62
2022/02/09 15:31:20;;;;;;;3.90;2.40;;;9.90;1.00;;;;;;5073710;28;20212;-61
2022/02/09 15:33:50;;;;;;;5.13;2.60;;;10.00;1.00;;;;;;5073533;28;20235;-64
2022/02/09 15:36:26;;;;;;;3.63;2.43;;;10.10;1.00;;;;;;5073906;28;20213;-61
2022/02/09 15:38:53;;;;;;;4.83;2.20;;;10.10;99.90;;;;;;5074046;28;20756;-66
2022/02/09 15:41:26;;;;;;;6.93;2.33;;;10.10;99.90;;;;;;5073642;28;20651;-66
2022/02/09 15:58:17;;;;;;;3.60;1.30;;;9.90;99.90;;;;;;5073343;28;20207;-61
2022/02/09 16:06:31;;;;;;;3.73;1.73;;;10.30;1.00;;;;;;5073369;28;20207;-65
2022/02/09 16:09:12;;;;;;;5.23;1.63;;;10.40;99.90;;;;;;5073290;28;20231;-65
2022/02/09 16:20:22;;;;;;;2.57;1.53;;;10.50;99.90;;;;;;5073155;28;20235;-66
2022/02/09 16:22:52;;;;;;;4.60;2.00;;;10.60;99.90;;;;;;5072620;28;20808;-64
2022/02/09 16:25:27;;;;;;;4.67;2.00;;;10.70;30.30;;;;;;5072852;28;20223;-63
2022/02/09 16:33:35;;;;;;;5.70;2.47;;;10.60;28.40;;;;;;5071889;28;20220;-60
2022/02/09 16:39:02;;;;;;;2.00;1.63;;;10.20;99.90;;;;;;5073481;28;20192;-59
2022/02/09 16:44:22;;;;;;;3.13;1.67;;;10.00;99.90;;;;;;5072365;28;20266;-61
2022/02/09 16:46:54;;;;;;;4.63;2.00;;;9.90;99.90;;;;;;5071981;28;20196;-64
2022/02/09 16:49:32;;;;;;;3.50;1.60;;;9.90;99.90;;;;;;5072611;28;20262;-66
2022/02/09 16:52:12;;;;;;;4.23;1.93;;;9.90;99.90;;;;;;5066622;28;20209;-66
2022/02/09 16:54:47;;;;;;;2.87;1.70;;;9.80;99.90;;;;;;5068213;28;20244;-66
2022/02/09 17:11:10;;;;;;;2.90;2.10;;;9.40;99.90;;;;;;5072074;28;20211;-63
2022/02/09 17:19:26;;;;;;;5.03;2.60;;;9.20;1.00;;;;;;5072124;28;20704;-63
2022/02/09 17:21:52;;;;;;;4.13;2.30;;;9.10;1.00;;;;;;5071578;28;20216;-63
2022/02/09 17:24:20;;;;;;;3.60;2.10;;;9.10;1.00;;;;;;5071689;28;20224;-62
2022/02/09 17:26:47;;;;;;;2.83;2.37;;;9.10;1.00;;;;;;5071940;28;20208;-63
2022/02/09 17:29:19;;;;;;;5.60;2.80;;;9.10;1.00;;;;;;5071703;28;20298;-63
2022/02/09 17:31:54;;;;;;;3.40;2.10;;;9.10;1.00;;;;;;5071602;28;20667;-63
2022/02/09 17:53:46;;;;;;;6.47;2.90;;;9.00;1.00;;;;;;5049040;28;20239;-62
2022/02/09 17:56:16;;;;;;;4.63;2.47;;;9.00;1.00;;;;;;5072145;28;20205;-62
2022/02/09 17:58:47;;;;;;;6.13;2.77;;;9.00;1.00;;;;;;5071588;28;20211;-63
2022/02/09 18:01:16;;;;;;;8.23;2.80;;;9.00;1.00;;;;;;5071479;28;20263;-63
2022/02/09 18:03:43;;;;;;;4.47;2.50;;;8.90;1.00;;;;;;5071702;28;20246;-68
2022/02/09 18:06:17;;;;;;;4.23;2.83;;;8.90;1.00;;;;;;5071713;28;20223;-64
2022/02/09 18:08:51;;;;;;;5.43;3.47;;;8.90;1.00;;;;;;5071327;28;20224;-63
2022/02/09 18:11:42;;;;;;;5.47;3.03;;;9.00;1.00;;;;;;5071262;28;20213;-63
2022/02/09 18:14:48;;;;;;;5.10;3.13;;;9.00;1.00;;;;;;5071826;28;20224;-63
2022/02/09 18:26:04;;;;;;;7.13;3.70;;;8.80;1.00;;;;;;5071162;28;20245;-62
2022/02/09 18:31:17;;;;;;;8.23;3.70;;;8.90;1.00;;;;;;5070984;28;20357;-63
2022/02/09 18:34:06;;;;;;;7.60;3.60;;;8.80;1.00;;;;;;5071267;28;20232;-64
2022/02/09 18:45:00;;;;;;;6.17;3.97;;;8.90;1.00;;;;;;5071117;28;20200;-62
2022/02/09 18:47:51;;;;;;;5.87;3.20;;;8.80;1.00;;;;;;5070998;28;20681;-67
2022/02/09 19:01:57;;;;;;;8.13;4.33;;;8.90;1.00;;;;;;5074240;28;20570;-67
2022/02/09 19:04:27;;;;;;;7.63;4.13;;;8.90;1.00;;;;;;5074396;28;20212;-61
2022/02/09 19:07:15;;;;;;;8.70;4.27;;;8.90;1.00;;;;;;5074597;28;20200;-61
2022/02/09 19:15:34;;;;;;;10.00;4.13;;;8.90;1.00;;;;;;5074204;28;20204;-61
2022/02/09 19:18:13;;;;;;;5.77;4.07;;;9.00;1.00;;;;;;5073766;28;20701;-61
2022/02/09 19:20:57;;;;;;;8.87;4.60;;;9.00;1.00;;;;;;5073690;28;20628;-61
2022/02/09 19:26:35;;;;;;;11.27;6.33;;;9.10;99.90;;;;;;5073538;28;20204;-58
2022/02/09 19:31:55;;;;;;;10.33;6.80;;;9.10;99.90;;;;;;5073772;28;20587;-59
2022/02/09 19:48:17;;;;;;;19.27;9.63;;;8.80;99.90;;;;;;5073873;28;20566;-66
2022/02/09 19:50:53;;;;;;;18.30;9.43;;;8.70;99.90;;;;;;5073599;28;20251;-67
2022/02/09 19:53:30;;;;;;;15.43;8.87;;;8.70;99.90;;;;;;5070062;22;20229;-67
2022/02/09 19:56:00;;;;;;;16.83;9.43;;;8.60;1.00;;;;;;5053379;28;20219;-66
2022/02/09 19:58:38;;;;;;;15.50;8.47;;;8.50;1.00;;;;;;5053919;28;20244;-66
2022/02/09 20:01:05;;;;;;;15.17;8.47;;;8.50;1.00;;;;;;5053408;28;20201;-62
2022/02/09 20:03:31;;;;;;;13.87;8.40;;;8.50;1.00;;;;;;5053252;28;20232;-62
2022/02/09 20:05:59;;;;;;;12.43;7.90;;;8.60;1.00;;;;;;5052841;28;20676;-60
2022/02/09 20:08:26;;;;;;;10.57;6.40;;;8.60;1.00;;;;;;5052927;28;20978;-61
2022/02/09 20:10:54;;;;;;;13.90;7.77;;;8.60;1.00;;;;;;5052745;28;20722;-63
2022/02/09 20:13:20;;;;;;;10.50;6.27;;;8.50;1.00;;;;;;5053406;28;20236;-64
2022/02/09 20:15:47;;;;;;;11.03;5.90;;;8.50;1.00;;;;;;5053057;28;20630;-63
2022/02/09 20:18:14;;;;;;;10.10;6.30;;;8.50;1.00;;;;;;5053216;28;20212;-64
2022/02/09 20:20:40;;;;;;;8.83;5.50;;;8.40;1.00;;;;;;5052811;28;20189;-63
2022/02/09 20:23:11;;;;;;;11.13;6.03;;;8.40;1.00;;;;;;5053440;28;20234;-63
2022/02/09 20:25:37;;;;;;;10.60;5.63;;;8.40;1.00;;;;;;5053263;28;20206;-63
2022/02/09 20:28:06;;;;;;;15.60;6.53;;;8.40;1.00;;;;;;5053090;28;20683;-62
2022/02/09 20:30:37;;;;;;;11.83;6.27;;;8.40;1.00;;;;;;5052574;28;20274;-63
2022/02/09 20:33:09;;;;;;;9.83;5.87;;;8.40;1.00;;;;;;5052857;28;20268;-67
2022/02/09 20:35:36;;;;;;;8.27;4.90;;;8.40;1.00;;;;;;5052774;28;20213;-62
2022/02/09 20:38:03;;;;;;;11.60;4.87;;;8.40;1.00;;;;;;5053020;28;20341;-62
2022/02/09 20:40:37;;;;;;;11.53;4.57;;;8.40;1.00;;;;;;5052989;28;20829;-62
2022/02/09 20:43:06;;;;;;;6.20;4.67;;;8.40;1.00;;;;;;5052787;28;20270;-62
2022/02/09 20:45:36;;;;;;;8.13;4.10;;;8.40;1.00;;;;;;5052917;28;20271;-62
2022/02/09 20:48:06;;;;;;;6.53;4.30;;;8.40;1.00;;;;;;5052753;28;20193;-62
2022/02/09 20:50:34;;;;;;;7.90;4.27;;;8.50;1.00;;;;;;5052910;28;20229;-60
2022/02/09 20:53:02;;;;;;;5.87;4.30;;;8.50;1.00;;;;;;5052614;28;20241;-61
2022/02/09 20:55:30;;;;;;;9.03;4.90;;;8.40;1.00;;;;;;5052631;28;20672;-61
2022/02/09 20:57:58;;;;;;;6.73;4.60;;;8.50;1.00;;;;;;5052620;28;20222;-62
2022/02/09 21:00:34;;;;;;;9.43;4.80;;;8.50;1.00;;;;;;5052478;28;20206;-61
2022/02/09 21:03:14;;;;;;;9.37;4.93;;;8.60;1.00;;;;;;5052616;28;20260;-59
2022/02/09 21:05:48;;;;;;;8.63;5.13;;;8.60;1.00;;;;;;5052718;28;20239;-61
2022/02/09 21:08:28;;;;;;;7.17;4.47;;;8.60;1.00;;;;;;5052320;28;20207;-61
2022/02/09 21:11:05;;;;;;;7.57;4.30;;;8.60;1.00;;;;;;5054665;28;20263;-63
2022/02/09 21:13:43;;;;;;;8.73;4.50;;;8.60;1.00;;;;;;5053909;28;20237;-63
2022/02/09 21:16:18;;;;;;;9.77;4.93;;;8.60;1.00;;;;;;5052395;28;20205;-63
2022/02/09 21:22:08;;;;;;;9.90;5.30;;;8.60;1.00;;;;;;5043130;28;20254;-63
2022/02/09 21:33:37;;;;;;;6.70;4.63;;;8.50;1.00;;;;;;5052144;28;20394;-63
2022/02/09 21:55:27;;;;;;;9.97;5.37;;;8.50;1.00;;;;;;5050545;28;20677;-63
2022/02/09 21:58:00;;;;;;;15.00;5.70;;;8.50;1.00;;;;;;5051487;28;20204;-62
2022/02/09 22:00:41;;;;;;;10.43;6.03;;;8.50;1.00;;;;;;5052019;28;20200;-63
2022/02/09 22:06:26;;;;;;;7.40;5.10;;;8.40;1.00;;;;;;5051645;28;20209;-63
2022/02/09 22:20:16;;;;;;;10.77;5.63;;;8.50;1.00;;;;;;5051493;28;20258;-63
2022/02/09 22:22:52;;;;;;;12.90;6.40;;;8.50;1.00;;;;;;5051407;28;20228;-63
2022/02/09 22:28:12;;;;;;;10.93;6.40;;;8.40;1.00;;;;;;5051090;28;20655;-63
2022/02/09 22:50:11;;;;;;;9.27;5.67;;;8.40;1.00;;;;;;5055345;28;20265;-63
2022/02/09 22:55:26;;;;;;;9.20;6.00;;;8.40;1.00;;;;;;5055021;28;20230;-62
2022/02/09 22:57:56;;;;;;;9.37;5.93;;;8.30;1.00;;;;;;5055028;28;20215;-62